Terminal Aerodrome Forecast
Issued by NWS

Home | Current Version | Previous Version | Text Only | Print | Product List | Glossary On
Versions: 1 2 3 4 5 6 7 8 9 10 11 12 13 14 15
000
FTUS43 KPAH 141725
TAFCGI
TAF
KCGI 141725Z 1418/1518 20012G19KT P6SM SCT045
     FM150000 19009KT P6SM SKC
     FM150400 19012G20KT P6SM SCT050
     FM151000 23014G24KT 5SM BR VCSH SCT025 BKN050
     FM151300 31014G24KT 4SM BR VCSH SCT020 BKN035=

USA.gov is the U.S. government's official web portal to all federal, state and local government web resources and services.